Time;durP1;ratioP1;P1;durP2;ratioP2;P2;SDS_P1;SDS_P2;PMS_P1;PMS_P2;Temp;Humidity;BMP_temperature;BMP_pressure;BME280_temperature;BME280_humidity;BME280_pressure;Samples;Min_cycle;Max_cycle;Signal;HPM_P1;HPM_P2
2022/07/02 00:01:05;;;;;;;1.88;1.60;;;14.40;99.90;;;;;;4345233;28;10000282;-71
2022/07/02 00:03:33;;;;;;;1.73;1.63;;;14.40;99.90;;;;;;5035642;28;20056;-71
2022/07/02 00:06:01;;;;;;;3.60;1.60;;;14.40;99.90;;;;;;5027335;28;20233;-71
2022/07/02 00:08:28;;;;;;;2.28;1.80;;;14.40;99.90;;;;;;5036380;28;20393;-71
2022/07/02 00:10:56;;;;;;;2.53;1.80;;;14.40;99.90;;;;;;5036665;28;20583;-71
2022/07/02 00:13:23;;;;;;;1.98;1.70;;;14.40;99.90;;;;;;5033174;28;20320;-70
2022/07/02 00:15:49;;;;;;;2.53;1.80;;;14.40;99.90;;;;;;5041481;28;20655;-71
2022/07/02 00:18:15;;;;;;;2.45;1.63;;;14.50;99.90;;;;;;5041530;28;20036;-71
2022/07/02 00:20:42;;;;;;;2.20;1.73;;;14.40;99.90;;;;;;5037314;28;20394;-71
2022/07/02 00:23:08;;;;;;;2.60;1.90;;;14.40;99.90;;;;;;5039870;28;20029;-71
2022/07/02 00:25:43;;;;;;;2.78;2.00;;;14.40;99.90;;;;;;5036687;28;20033;-71
2022/07/02 00:28:16;;;;;;;1.83;1.67;;;14.50;99.90;;;;;;5035314;28;20028;-71
2022/07/02 00:30:46;;;;;;;2.22;1.75;;;14.50;99.90;;;;;;5037091;28;20726;-72
2022/07/02 00:33:16;;;;;;;2.88;2.05;;;14.50;99.90;;;;;;5036635;28;20132;-71
2022/07/02 00:35:43;;;;;;;2.20;1.67;;;14.50;99.90;;;;;;5040649;28;20060;-71
2022/07/02 00:38:09;;;;;;;1.88;1.60;;;14.40;99.90;;;;;;5044677;28;20037;-71
2022/07/02 00:40:36;;;;;;;2.95;1.60;;;14.50;99.90;;;;;;5037601;28;20109;-72
2022/07/02 00:43:02;;;;;;;2.10;1.67;;;14.50;99.90;;;;;;5035674;28;20251;-72
2022/07/02 00:45:28;;;;;;;2.70;1.90;;;14.50;99.90;;;;;;5041722;28;20021;-71
2022/07/02 00:47:55;;;;;;;3.05;1.83;;;14.50;99.90;;;;;;5045688;28;20033;-72
2022/07/02 00:50:22;;;;;;;2.08;1.70;;;14.50;99.90;;;;;;5042693;28;20588;-72
2022/07/02 00:52:48;;;;;;;2.42;1.60;;;14.60;99.90;;;;;;5039520;28;20035;-71
2022/07/02 00:55:14;;;;;;;2.08;1.67;;;14.70;99.90;;;;;;5038002;28;20025;-71
2022/07/02 00:57:39;;;;;;;2.15;1.65;;;14.70;99.90;;;;;;5038942;28;20029;-71
2022/07/02 01:00:08;;;;;;;1.70;1.60;;;14.70;99.90;;;;;;5042361;28;20063;-71
2022/07/02 01:02:36;;;;;;;3.05;1.90;;;14.70;99.90;;;;;;5035588;28;20836;-71
2022/07/02 01:05:02;;;;;;;4.13;1.90;;;14.70;99.90;;;;;;5043123;28;20397;-71
2022/07/02 01:07:29;;;;;;;3.25;1.55;;;14.60;99.90;;;;;;5043659;28;20048;-71
2022/07/02 01:10:18;;;;;;;3.20;2.30;;;14.60;99.90;;;;;;5040963;28;20029;-71
2022/07/02 01:12:48;;;;;;;2.42;2.10;;;14.60;99.90;;;;;;5046310;28;20370;-71
2022/07/02 01:15:14;;;;;;;2.78;1.92;;;14.50;99.90;;;;;;5049447;28;20033;-71
2022/07/02 01:17:41;;;;;;;3.10;2.00;;;14.50;99.90;;;;;;5045897;28;20587;-71
2022/07/02 01:20:07;;;;;;;2.55;1.92;;;14.40;99.90;;;;;;5038218;28;20664;-71
2022/07/02 01:22:40;;;;;;;2.83;2.20;;;14.40;99.90;;;;;;5045624;28;20032;-71
2022/07/02 01:25:07;;;;;;;3.50;2.13;;;14.40;99.90;;;;;;5042415;28;20026;-71
2022/07/02 01:27:33;;;;;;;1.98;1.75;;;14.40;99.90;;;;;;5039790;28;20061;-71
2022/07/02 01:29:59;;;;;;;2.70;2.00;;;14.40;99.90;;;;;;5047675;28;20061;-71
2022/07/02 01:32:25;;;;;;;2.42;2.20;;;14.40;99.90;;;;;;5045844;28;20709;-71
2022/07/02 01:35:02;;;;;;;2.47;1.80;;;14.40;99.90;;;;;;5040962;28;20679;-71
2022/07/02 01:37:27;;;;;;;2.53;1.70;;;14.30;99.90;;;;;;5048128;28;20043;-71
2022/07/02 01:39:53;;;;;;;2.28;1.77;;;14.20;99.90;;;;;;5050720;28;20029;-71
2022/07/02 01:42:18;;;;;;;2.60;1.80;;;14.20;99.90;;;;;;5030593;28;20266;-71
2022/07/02 01:44:45;;;;;;;2.33;1.60;;;14.20;99.90;;;;;;5039536;28;20036;-71
2022/07/02 01:47:11;;;;;;;3.38;1.85;;;14.20;99.90;;;;;;5037275;28;20037;-72
2022/07/02 01:49:38;;;;;;;2.72;1.70;;;14.30;99.90;;;;;;5050602;28;20044;-72
2022/07/02 01:52:05;;;;;;;2.60;1.60;;;14.30;99.90;;;;;;5040928;28;20033;-71
2022/07/02 01:54:31;;;;;;;1.60;1.50;;;14.30;99.90;;;;;;5040098;28;20034;-71
2022/07/02 01:56:58;;;;;;;2.50;1.60;;;14.30;99.90;;;;;;5048489;28;20433;-72
2022/07/02 01:59:24;;;;;;;2.22;1.67;;;14.20;99.90;;;;;;5042630;28;20393;-71
2022/07/02 02:01:50;;;;;;;2.25;1.65;;;14.10;99.90;;;;;;5034504;28;20036;-71
2022/07/02 02:04:15;;;;;;;2.35;1.70;;;14.10;99.90;;;;;;5040334;28;20045;-71
2022/07/02 02:06:41;;;;;;;2.45;1.90;;;14.00;99.90;;;;;;5039800;28;20037;-71
2022/07/02 02:09:07;;;;;;;1.92;1.73;;;13.90;99.90;;;;;;5040026;28;20147;-71
2022/07/02 02:11:33;;;;;;;1.65;1.55;;;13.90;99.90;;;;;;5044378;28;20353;-71
2022/07/02 02:13:59;;;;;;;1.73;1.60;;;13.80;99.90;;;;;;5037765;28;20143;-71
2022/07/02 02:16:26;;;;;;;1.70;1.60;;;13.80;99.90;;;;;;5040295;28;20040;-71
2022/07/02 02:18:53;;;;;;;2.20;1.77;;;13.80;99.90;;;;;;5041940;28;20074;-71
2022/07/02 02:21:19;;;;;;;1.83;1.50;;;13.80;99.90;;;;;;5042146;28;20038;-71
2022/07/02 02:23:44;;;;;;;1.63;1.52;;;13.80;99.90;;;;;;5039840;28;20109;-71
2022/07/02 02:26:10;;;;;;;1.85;1.75;;;13.80;99.90;;;;;;5040896;28;20108;-71
2022/07/02 02:28:36;;;;;;;2.25;1.70;;;13.70;99.90;;;;;;5046414;28;20029;-71
2022/07/02 02:31:02;;;;;;;1.73;1.60;;;13.70;99.90;;;;;;5043013;28;20605;-71
2022/07/02 02:33:28;;;;;;;2.28;1.65;;;13.60;99.90;;;;;;5037752;28;20048;-72
2022/07/02 02:35:53;;;;;;;2.00;1.80;;;13.60;99.90;;;;;;5037029;28;20064;-71
2022/07/02 02:38:19;;;;;;;2.60;1.98;;;13.60;99.90;;;;;;5038630;28;20489;-70
2022/07/02 02:40:44;;;;;;;2.20;1.70;;;13.60;99.90;;;;;;5045723;28;20032;-71
2022/07/02 02:43:10;;;;;;;2.13;1.85;;;13.50;99.90;;;;;;5045954;28;20056;-71
2022/07/02 02:45:36;;;;;;;3.65;2.00;;;13.50;99.90;;;;;;5043332;28;20025;-71
2022/07/02 02:48:02;;;;;;;2.65;2.05;;;13.50;99.90;;;;;;5044634;28;20029;-71
2022/07/02 02:50:27;;;;;;;4.20;2.20;;;13.40;99.90;;;;;;5039289;28;20404;-71
2022/07/02 02:52:53;;;;;;;2.55;2.00;;;13.30;99.90;;;;;;5035183;28;20041;-71
2022/07/02 02:55:31;;;;;;;2.67;2.10;;;13.20;99.90;;;;;;5041902;28;20500;-71
2022/07/02 02:57:56;;;;;;;2.60;1.95;;;13.20;99.90;;;;;;5033951;28;20093;-71
2022/07/02 03:00:22;;;;;;;2.30;2.10;;;13.10;99.90;;;;;;5046108;28;20030;-71
2022/07/02 03:02:47;;;;;;;2.47;2.28;;;13.00;99.90;;;;;;5042207;28;20029;-71
2022/07/02 03:05:13;;;;;;;2.83;2.20;;;13.00;99.90;;;;;;5044477;28;20025;-71
2022/07/02 03:07:39;;;;;;;2.08;1.88;;;13.00;99.90;;;;;;5039564;28;20038;-71
2022/07/02 03:10:05;;;;;;;2.67;2.33;;;12.90;99.90;;;;;;5038777;28;21060;-71
2022/07/02 03:12:31;;;;;;;2.53;2.20;;;12.90;99.90;;;;;;5037785;28;20032;-71
2022/07/02 03:14:56;;;;;;;3.10;2.30;;;12.90;99.90;;;;;;5042398;28;20261;-71
2022/07/02 03:17:22;;;;;;;2.50;2.15;;;12.80;99.90;;;;;;5041634;28;20362;-72
2022/07/02 03:19:48;;;;;;;2.58;2.38;;;12.80;99.90;;;;;;5030714;28;20116;-70
2022/07/02 03:22:13;;;;;;;3.47;2.63;;;12.70;99.90;;;;;;5042396;28;20033;-72
2022/07/02 03:24:39;;;;;;;3.80;2.72;;;12.70;99.90;;;;;;5038082;28;20403;-71
2022/07/02 03:27:04;;;;;;;2.60;2.40;;;12.70;99.90;;;;;;5040907;28;20025;-71
2022/07/02 03:29:30;;;;;;;3.08;2.78;;;12.60;99.90;;;;;;5041549;28;20440;-71
2022/07/02 03:31:56;;;;;;;3.70;3.00;;;12.50;99.90;;;;;;5038959;28;20196;-71
2022/07/02 03:34:21;;;;;;;3.47;3.17;;;12.50;99.90;;;;;;5041445;28;20083;-71
2022/07/02 03:36:47;;;;;;;5.00;3.25;;;12.50;99.90;;;;;;5042630;28;20364;-71
2022/07/02 03:39:12;;;;;;;3.80;3.50;;;12.50;99.90;;;;;;5044964;28;20546;-71
2022/07/02 03:41:38;;;;;;;3.40;2.80;;;12.50;99.90;;;;;;5044695;28;20052;-71
2022/07/02 03:44:04;;;;;;;3.75;3.40;;;12.50;99.90;;;;;;5040798;28;20474;-71
2022/07/02 03:46:29;;;;;;;3.22;2.92;;;12.50;99.90;;;;;;5044440;28;20036;-71
2022/07/02 03:48:55;;;;;;;6.05;3.25;;;12.60;99.90;;;;;;5042264;28;20537;-71
2022/07/02 03:51:21;;;;;;;3.13;2.83;;;12.60;99.90;;;;;;5042849;28;20388;-71
2022/07/02 03:53:47;;;;;;;3.78;2.92;;;12.60;99.90;;;;;;5035480;28;20029;-71
2022/07/02 03:56:13;;;;;;;4.03;2.63;;;12.70;99.90;;;;;;5041238;28;20037;-71
2022/07/02 03:58:39;;;;;;;5.25;3.25;;;12.80;99.90;;;;;;5042484;28;20039;-72
2022/07/02 04:01:05;;;;;;;5.03;3.15;;;12.90;99.90;;;;;;5038709;28;20037;-71
2022/07/02 04:03:30;;;;;;;5.18;3.25;;;12.90;99.90;;;;;;5033368;28;20063;-71
2022/07/02 04:05:56;;;;;;;5.43;3.45;;;12.90;99.90;;;;;;5035951;28;20036;-71
2022/07/02 04:08:21;;;;;;;3.42;3.13;;;13.00;99.90;;;;;;5041409;28;20023;-71
2022/07/02 04:10:47;;;;;;;3.50;3.20;;;13.00;99.90;;;;;;5043913;28;20037;-71
2022/07/02 04:13:13;;;;;;;3.40;3.10;;;13.00;99.90;;;;;;5045973;28;20065;-71
2022/07/02 04:15:38;;;;;;;3.30;3.00;;;13.20;99.90;;;;;;5043810;28;20107;-72
2022/07/02 04:18:04;;;;;;;3.20;2.90;;;14.30;99.90;;;;;;5040668;28;20031;-71
2022/07/02 04:20:30;;;;;;;3.92;3.22;;;15.80;99.90;;;;;;5038846;28;20035;-71
2022/07/02 04:22:55;;;;;;;3.10;2.75;;;17.70;99.90;;;;;;5040428;28;20440;-72
2022/07/02 04:25:21;;;;;;;3.17;2.83;;;19.10;99.90;;;;;;5031778;28;20028;-71
2022/07/02 04:27:46;;;;;;;4.72;2.90;;;20.20;99.90;;;;;;5043662;28;20061;-71
2022/07/02 04:30:12;;;;;;;3.60;2.97;;;20.60;99.90;;;;;;5050603;28;20047;-71
2022/07/02 04:32:38;;;;;;;3.90;3.03;;;20.30;99.90;;;;;;5042241;28;20032;-71
2022/07/02 04:35:04;;;;;;;5.45;2.92;;;19.60;99.90;;;;;;5035426;28;20048;-71
2022/07/02 04:37:30;;;;;;;3.28;2.97;;;18.90;99.90;;;;;;5037465;28;20033;-71
2022/07/02 04:39:55;;;;;;;4.07;3.10;;;18.20;99.90;;;;;;5028028;28;20621;-71
2022/07/02 04:42:21;;;;;;;7.22;3.08;;;17.70;99.90;;;;;;5041604;28;20087;-70
2022/07/02 04:44:47;;;;;;;2.78;2.53;;;17.30;99.90;;;;;;5041655;28;20123;-71
2022/07/02 04:47:12;;;;;;;5.75;3.13;;;16.90;99.90;;;;;;5038238;28;20481;-71
2022/07/02 04:49:38;;;;;;;3.97;2.78;;;16.60;99.90;;;;;;5044395;28;20263;-70
2022/07/02 04:52:04;;;;;;;3.42;2.55;;;16.40;99.90;;;;;;5037633;28;20043;-71
2022/07/02 04:54:29;;;;;;;3.35;2.78;;;16.30;99.90;;;;;;5042517;28;20071;-71
2022/07/02 04:56:55;;;;;;;3.40;2.95;;;16.30;99.90;;;;;;5043568;28;20393;-71
2022/07/02 04:59:20;;;;;;;3.22;2.60;;;16.20;99.90;;;;;;5041514;28;20033;-71
2022/07/02 05:01:46;;;;;;;3.65;2.80;;;16.30;99.90;;;;;;5036938;28;20083;-71
2022/07/02 05:04:12;;;;;;;2.90;2.35;;;16.30;99.90;;;;;;5039362;28;20025;-71
2022/07/02 05:06:37;;;;;;;4.78;2.50;;;16.20;99.90;;;;;;5037692;28;20123;-70
2022/07/02 05:09:03;;;;;;;2.60;2.17;;;16.30;99.90;;;;;;5035314;28;20071;-71
2022/07/02 05:11:29;;;;;;;2.97;2.03;;;16.30;99.90;;;;;;5039166;28;20493;-71
2022/07/02 05:13:55;;;;;;;2.40;1.90;;;16.40;99.90;;;;;;5036762;28;20048;-71
2022/07/02 05:16:20;;;;;;;4.15;2.20;;;16.50;99.90;;;;;;5038651;28;20037;-71
2022/07/02 05:18:46;;;;;;;2.00;1.85;;;16.50;99.90;;;;;;5034875;28;20061;-73
2022/07/02 05:21:12;;;;;;;2.28;2.08;;;16.50;99.90;;;;;;5044981;28;20021;-73
2022/07/02 05:23:38;;;;;;;2.70;1.95;;;16.60;99.90;;;;;;5034143;28;20037;-72
2022/07/02 05:26:03;;;;;;;2.45;1.98;;;16.70;99.90;;;;;;5038033;28;20039;-73
2022/07/02 05:28:29;;;;;;;2.00;1.67;;;16.80;99.90;;;;;;5031952;28;20064;-73
2022/07/02 05:30:54;;;;;;;6.00;1.67;;;16.90;99.90;;;;;;5043311;28;20037;-72
2022/07/02 05:33:20;;;;;;;4.40;1.55;;;17.00;99.90;;;;;;5041377;28;20024;-72
2022/07/02 05:35:46;;;;;;;2.70;2.03;;;17.10;99.90;;;;;;5041450;28;20038;-73
2022/07/02 05:38:12;;;;;;;3.03;1.70;;;17.20;99.90;;;;;;5030925;28;20059;-73
2022/07/02 05:40:38;;;;;;;2.65;1.92;;;17.30;99.90;;;;;;5036253;28;20560;-73
2022/07/02 05:43:03;;;;;;;2.03;1.80;;;17.40;99.90;;;;;;5029712;28;20725;-72
2022/07/02 05:45:29;;;;;;;2.63;1.88;;;17.60;99.90;;;;;;5034271;28;20535;-73
2022/07/02 05:47:55;;;;;;;3.10;2.00;;;17.70;99.90;;;;;;5036769;28;20124;-72
2022/07/02 05:50:21;;;;;;;2.58;1.80;;;17.80;99.90;;;;;;5035328;28;20029;-73
2022/07/02 05:52:46;;;;;;;3.08;1.77;;;17.80;99.90;;;;;;5037155;28;20091;-72
2022/07/02 05:55:12;;;;;;;3.50;1.90;;;17.90;99.90;;;;;;5039079;28;20036;-72
2022/07/02 05:57:38;;;;;;;2.97;1.85;;;18.10;99.90;;;;;;5041840;28;20032;-72
2022/07/02 06:00:05;;;;;;;3.38;1.75;;;18.10;99.90;;;;;;5035670;28;20033;-73
2022/07/02 06:02:31;;;;;;;3.53;1.58;;;18.20;99.90;;;;;;5044590;28;20029;-72
2022/07/02 06:04:57;;;;;;;2.03;1.50;;;18.30;99.90;;;;;;5036136;28;20021;-73
2022/07/02 06:07:42;;;;;;;2.10;1.60;;;18.40;99.90;;;;;;5041192;28;20175;-73
2022/07/02 06:10:09;;;;;;;4.35;1.70;;;18.40;99.90;;;;;;5039211;28;20056;-73
2022/07/02 06:12:34;;;;;;;4.40;1.67;;;18.60;99.90;;;;;;5044083;28;20124;-73
2022/07/02 06:15:00;;;;;;;1.58;1.48;;;18.70;99.90;;;;;;5045447;28;20209;-72
2022/07/02 06:17:26;;;;;;;2.75;1.40;;;18.70;99.90;;;;;;5041196;28;20049;-72
2022/07/02 06:19:51;;;;;;;2.20;1.65;;;18.70;99.90;;;;;;5039483;28;20033;-73
2022/07/02 06:22:17;;;;;;;3.42;1.60;;;18.80;99.90;;;;;;5041154;28;20122;-73
2022/07/02 06:24:45;;;;;;;1.73;1.52;;;18.90;99.90;;;;;;5036234;28;20301;-73
2022/07/02 06:27:11;;;;;;;2.50;1.77;;;18.90;99.90;;;;;;5042589;28;20041;-73
2022/07/02 06:29:37;;;;;;;4.35;1.90;;;19.00;99.90;;;;;;5040015;28;20041;-72
2022/07/02 06:32:03;;;;;;;1.77;1.67;;;19.20;99.90;;;;;;5040279;28;20391;-73
2022/07/02 06:34:28;;;;;;;1.67;1.58;;;19.30;99.90;;;;;;5034376;28;20512;-73
2022/07/02 06:36:54;;;;;;;2.33;1.42;;;19.50;99.90;;;;;;5037496;28;20029;-72
2022/07/02 06:39:19;;;;;;;2.13;1.50;;;19.70;99.90;;;;;;5032843;28;20124;-73
2022/07/02 06:44:29;;;;;;;4.13;1.67;;;19.90;99.90;;;;;;5033051;28;20048;-73
2022/07/02 06:46:55;;;;;;;2.08;1.27;;;20.20;99.90;;;;;;5039641;28;20474;-73
2022/07/02 06:49:20;;;;;;;1.30;1.20;;;20.50;99.90;;;;;;5041343;28;20032;-73
2022/07/02 06:51:46;;;;;;;1.95;1.40;;;20.70;99.90;;;;;;5039223;28;20036;-73
2022/07/02 06:54:12;;;;;;;1.73;1.23;;;20.80;99.90;;;;;;5039291;28;20580;-73
2022/07/02 06:56:37;;;;;;;1.35;1.15;;;20.90;99.90;;;;;;5040378;28;20158;-73
2022/07/02 06:59:05;;;;;;;2.47;1.10;;;21.10;99.90;;;;;;5038698;28;20033;-73
2022/07/02 07:01:30;;;;;;;2.03;1.20;;;21.20;99.90;;;;;;5038930;28;20025;-73
2022/07/02 07:03:56;;;;;;;1.80;0.90;;;21.30;99.90;;;;;;5047016;28;20025;-72
2022/07/02 07:06:23;;;;;;;6.65;1.23;;;21.50;99.90;;;;;;5034922;28;20037;-72
2022/07/02 07:08:53;;;;;;;3.33;1.30;;;21.60;99.90;;;;;;5039354;28;20048;-73
2022/07/02 07:11:22;;;;;;;1.05;0.80;;;21.70;99.90;;;;;;5043749;28;20037;-73
2022/07/02 07:13:49;;;;;;;3.03;1.20;;;21.80;99.90;;;;;;5039569;28;20029;-73
2022/07/02 07:16:14;;;;;;;2.65;1.10;;;21.80;99.50;;;;;;5033653;28;20032;-73
2022/07/02 07:18:40;;;;;;;2.75;1.20;;;21.80;99.30;;;;;;5040491;28;20025;-73
2022/07/02 07:21:06;;;;;;;2.13;1.08;;;21.80;98.60;;;;;;5032396;28;20599;-73
2022/07/02 07:23:32;;;;;;;2.25;1.20;;;21.90;99.40;;;;;;5037491;28;20021;-73
2022/07/02 07:25:57;;;;;;;2.97;1.20;;;22.00;98.30;;;;;;5038991;28;20037;-73
2022/07/02 07:28:26;;;;;;;1.20;1.00;;;22.20;97.90;;;;;;5030380;28;20025;-73
2022/07/02 07:30:53;;;;;;;1.73;1.10;;;22.40;98.00;;;;;;5033346;28;20450;-73
2022/07/02 07:33:19;;;;;;;1.05;0.95;;;22.60;97.50;;;;;;5034927;28;20536;-73
2022/07/02 07:35:44;;;;;;;2.35;1.17;;;22.70;96.40;;;;;;5032238;28;20215;-73
2022/07/02 07:38:10;;;;;;;3.13;1.10;;;22.90;96.30;;;;;;5038071;28;20613;-73
2022/07/02 07:40:36;;;;;;;2.97;1.20;;;23.00;96.00;;;;;;5036212;28;20046;-73
2022/07/02 07:43:03;;;;;;;2.22;1.00;;;23.20;95.20;;;;;;5039090;28;20503;-73
2022/07/02 07:45:29;;;;;;;2.45;1.20;;;23.20;95.20;;;;;;5039966;28;20025;-73
2022/07/02 07:47:54;;;;;;;2.22;1.08;;;23.30;94.70;;;;;;5040846;28;20029;-73
2022/07/02 07:50:20;;;;;;;1.85;1.10;;;23.40;94.70;;;;;;5035504;28;20611;-73
2022/07/02 07:52:45;;;;;;;3.20;1.00;;;23.50;94.60;;;;;;5041781;28;20069;-74
2022/07/02 07:55:11;;;;;;;2.42;1.00;;;23.60;94.20;;;;;;5033427;28;20033;-73
2022/07/02 07:57:36;;;;;;;1.63;0.80;;;23.70;94.20;;;;;;5029723;28;20478;-73
2022/07/02 08:00:04;;;;;;;1.60;1.10;;;24.00;93.90;;;;;;5036280;28;20035;-74
2022/07/02 08:02:30;;;;;;;2.90;1.27;;;24.20;92.80;;;;;;5055286;28;20063;-74
2022/07/02 08:04:55;;;;;;;1.42;0.90;;;24.50;93.60;;;;;;5046149;28;20075;-73
2022/07/02 08:07:21;;;;;;;3.05;1.55;;;24.80;92.90;;;;;;5030603;28;20025;-73
2022/07/02 08:09:53;;;;;;;2.25;1.20;;;25.00;91.60;;;;;;5043249;28;20523;-73
2022/07/02 08:12:22;;;;;;;1.73;1.07;;;24.90;89.30;;;;;;5046975;28;20095;-73
2022/07/02 08:14:48;;;;;;;1.27;0.70;;;24.80;88.30;;;;;;5031768;28;20311;-74
2022/07/02 08:17:14;;;;;;;2.92;0.98;;;24.90;88.30;;;;;;5029604;28;20040;-73
2022/07/02 08:19:40;;;;;;;4.32;0.93;;;25.00;84.50;;;;;;5033267;28;20052;-73
2022/07/02 08:22:06;;;;;;;1.27;0.80;;;25.00;82.60;;;;;;5041886;28;20124;-73
2022/07/02 08:24:31;;;;;;;1.40;0.70;;;25.00;84.10;;;;;;5039292;28;20021;-73
2022/07/02 08:26:57;;;;;;;2.35;0.90;;;24.80;81.80;;;;;;5040584;28;20035;-73
2022/07/02 08:29:23;;;;;;;2.35;1.10;;;24.80;84.10;;;;;;5036291;28;20059;-73
2022/07/02 08:31:48;;;;;;;1.35;0.90;;;24.90;82.70;;;;;;5031950;28;20473;-73
2022/07/02 08:34:14;;;;;;;1.77;0.90;;;24.80;82.80;;;;;;5039978;28;20062;-73
2022/07/02 08:36:39;;;;;;;1.40;0.80;;;24.90;83.30;;;;;;5039290;28;20029;-73
2022/07/02 08:39:05;;;;;;;1.80;0.75;;;25.00;81.20;;;;;;5034719;28;20185;-73
2022/07/02 08:41:32;;;;;;;2.00;0.80;;;25.30;82.30;;;;;;5036249;28;20404;-73
2022/07/02 08:44:01;;;;;;;2.00;0.70;;;25.40;78.80;;;;;;5031152;28;20037;-73
2022/07/02 08:46:28;;;;;;;1.08;0.70;;;25.70;81.10;;;;;;5041641;28;20025;-73
2022/07/02 08:48:57;;;;;;;3.83;0.80;;;25.80;78.30;;;;;;5033012;28;20460;-73
2022/07/02 08:51:23;;;;;;;1.45;0.70;;;25.90;79.20;;;;;;5033573;28;20049;-73
2022/07/02 08:53:49;;;;;;;1.83;0.50;;;26.00;77.30;;;;;;5042206;28;20415;-73
2022/07/02 08:56:16;;;;;;;1.17;0.50;;;25.90;73.70;;;;;;5036536;28;20116;-73
2022/07/02 08:58:44;;;;;;;0.90;0.43;;;25.90;71.30;;;;;;5039386;28;20037;-72
2022/07/02 09:01:11;;;;;;;0.77;0.40;;;26.00;69.60;;;;;;5030937;28;20034;-72
2022/07/02 09:03:39;;;;;;;1.75;0.50;;;26.00;68.30;;;;;;5038727;28;20435;-72
2022/07/02 09:06:06;;;;;;;4.00;0.50;;;26.00;67.80;;;;;;5038577;28;20088;-72
2022/07/02 09:08:33;;;;;;;0.55;0.32;;;26.10;63.70;;;;;;5023253;28;20160;-72
2022/07/02 09:11:02;;;;;;;2.83;0.50;;;26.10;64.20;;;;;;5031344;28;20047;-72
2022/07/02 09:13:27;;;;;;;3.03;0.60;;;26.10;63.90;;;;;;5037043;28;20066;-72
2022/07/02 09:15:55;;;;;;;0.40;0.40;;;26.20;65.80;;;;;;5043944;28;20432;-72
2022/07/02 09:18:21;;;;;;;3.22;0.77;;;26.30;65.10;;;;;;5036167;28;20124;-72
2022/07/02 09:20:47;;;;;;;1.42;0.55;;;26.30;65.50;;;;;;5036108;28;20032;-72
2022/07/02 09:23:30;;;;;;;0.73;0.50;;;26.50;64.50;;;;;;5034067;28;20555;-72
2022/07/02 09:25:56;;;;;;;2.28;0.47;;;26.60;64.80;;;;;;5034702;28;20017;-72
2022/07/02 09:28:25;;;;;;;2.13;0.50;;;26.60;62.00;;;;;;5043930;28;20029;-72
2022/07/02 09:31:01;;;;;;;5.00;0.50;;;26.60;60.90;;;;;;5040882;28;20322;-72
2022/07/02 09:33:35;;;;;;;0.93;0.40;;;26.40;60.30;;;;;;5041421;28;20049;-72
2022/07/02 09:36:12;;;;;;;2.08;0.43;;;26.30;61.50;;;;;;5046716;28;20053;-72
2022/07/02 09:38:48;;;;;;;1.25;0.40;;;26.40;59.80;;;;;;5047023;28;20591;-72
2022/07/02 09:41:20;;;;;;;2.13;0.30;;;26.50;60.20;;;;;;5044378;28;20048;-72
2022/07/02 09:44:06;;;;;;;3.25;0.40;;;26.50;59.10;;;;;;5034420;28;20029;-71
2022/07/02 09:46:32;;;;;;;4.50;0.50;;;26.60;58.40;;;;;;5048879;28;20085;-72
2022/07/02 09:49:17;;;;;;;1.90;0.40;;;26.70;57.30;;;;;;5054769;28;20033;-72
2022/07/02 09:51:53;;;;;;;1.67;0.60;;;26.70;57.30;;;;;;5041082;28;20041;-72
2022/07/02 09:54:22;;;;;;;4.50;0.60;;;26.70;56.50;;;;;;5046712;28;20029;-72
2022/07/02 09:56:55;;;;;;;4.38;0.40;;;26.70;57.50;;;;;;5047937;28;20051;-72
2022/07/02 09:59:21;;;;;;;1.65;0.40;;;26.80;55.90;;;;;;5045019;28;20075;-72
2022/07/02 10:01:47;;;;;;;3.70;0.45;;;26.90;56.50;;;;;;5047027;28;20063;-72
2022/07/02 10:04:16;;;;;;;0.75;0.30;;;27.00;55.00;;;;;;5029464;28;20026;-72
2022/07/02 10:06:43;;;;;;;1.52;0.40;;;27.00;55.60;;;;;;5044988;28;20033;-71
2022/07/02 10:09:09;;;;;;;1.27;0.30;;;27.10;56.60;;;;;;5036077;28;20029;-72
2022/07/02 10:11:37;;;;;;;2.08;0.22;;;27.10;54.00;;;;;;5047492;28;20029;-72
2022/07/02 10:14:04;;;;;;;0.50;0.32;;;27.30;54.70;;;;;;5044843;28;20370;-72
2022/07/02 10:16:30;;;;;;;2.45;0.50;;;27.30;54.60;;;;;;5046366;28;20037;-72
2022/07/02 10:18:58;;;;;;;0.55;0.30;;;27.20;54.60;;;;;;5042818;28;20435;-72
2022/07/02 10:21:24;;;;;;;5.35;0.40;;;27.10;53.20;;;;;;5047469;28;20123;-72
2022/07/02 10:23:51;;;;;;;3.28;0.40;;;27.10;54.10;;;;;;5042557;28;20112;-71
2022/07/02 10:26:17;;;;;;;1.83;0.40;;;27.10;53.90;;;;;;5042699;28;20025;-72
2022/07/02 10:28:43;;;;;;;1.13;0.40;;;27.10;54.30;;;;;;5043472;28;20029;-72
2022/07/02 10:31:18;;;;;;;1.80;0.40;;;27.20;55.10;;;;;;5042448;28;20389;-72
2022/07/02 10:34:10;;;;;;;1.33;0.47;;;27.20;52.40;;;;;;5043170;28;20285;-72
2022/07/02 10:36:36;;;;;;;1.95;0.32;;;27.20;52.60;;;;;;5040703;28;20092;-73
2022/07/02 10:39:02;;;;;;;5.38;0.38;;;27.30;52.10;;;;;;5033536;28;20561;-73
2022/07/02 10:41:30;;;;;;;3.10;0.40;;;27.30;53.90;;;;;;5037661;28;20370;-72
2022/07/02 10:43:57;;;;;;;2.53;0.52;;;27.30;53.30;;;;;;5033392;28;20037;-73
2022/07/02 10:46:28;;;;;;;3.63;0.60;;;27.40;53.60;;;;;;5039217;28;20112;-72
2022/07/02 10:48:55;;;;;;;0.50;0.50;;;27.10;52.10;;;;;;5030773;28;20083;-73
2022/07/02 10:51:32;;;;;;;2.17;0.47;;;27.00;53.40;;;;;;5041788;28;20033;-72
2022/07/02 10:54:03;;;;;;;2.05;0.47;;;27.00;53.20;;;;;;5039321;28;20055;-72
2022/07/02 10:56:30;;;;;;;2.63;0.82;;;27.00;53.40;;;;;;5046000;28;20378;-72
2022/07/02 10:58:56;;;;;;;0.93;0.40;;;27.20;54.10;;;;;;5036109;28;20041;-72
2022/07/02 11:01:24;;;;;;;2.85;0.50;;;27.30;54.10;;;;;;5039924;28;20045;-72
2022/07/02 11:04:00;;;;;;;2.60;0.60;;;27.30;54.10;;;;;;5047994;28;20492;-72
2022/07/02 11:06:28;;;;;;;4.90;0.50;;;27.40;53.30;;;;;;5029364;28;20482;-72
2022/07/02 11:09:00;;;;;;;2.47;0.40;;;27.40;53.60;;;;;;5040385;28;20071;-72
2022/07/02 11:11:35;;;;;;;0.63;0.50;;;27.40;52.90;;;;;;5046672;28;20464;-72
2022/07/02 11:14:00;;;;;;;0.47;0.40;;;27.20;53.10;;;;;;5044055;28;20025;-72
2022/07/02 11:16:42;;;;;;;3.55;0.65;;;27.20;53.30;;;;;;5042717;28;20071;-72
2022/07/02 11:19:26;;;;;;;0.50;0.50;;;27.10;54.20;;;;;;5043052;28;20032;-74
2022/07/02 11:21:57;;;;;;;1.25;0.47;;;27.30;55.00;;;;;;5041203;28;20284;-74
2022/07/02 11:24:26;;;;;;;1.65;0.65;;;27.40;54.70;;;;;;5041479;28;20795;-74
2022/07/02 11:26:52;;;;;;;1.35;0.40;;;27.50;55.40;;;;;;5031774;28;20021;-74
2022/07/02 11:29:18;;;;;;;1.85;0.50;;;27.60;53.40;;;;;;5033984;28;20033;-74
2022/07/02 11:31:49;;;;;;;2.35;0.50;;;27.60;54.30;;;;;;5039392;28;20094;-74
2022/07/02 11:34:22;;;;;;;1.58;0.60;;;27.50;51.90;;;;;;5040077;28;20049;-74
2022/07/02 11:36:48;;;;;;;1.88;0.77;;;27.60;54.00;;;;;;5043944;28;20032;-74
2022/07/02 11:39:15;;;;;;;1.00;0.50;;;27.50;53.30;;;;;;5033906;28;20554;-74
2022/07/02 11:41:42;;;;;;;1.48;0.70;;;27.60;54.10;;;;;;4685651;28;10000491;-74
2022/07/02 11:44:15;;;;;;;0.90;0.60;;;27.70;53.40;;;;;;5038311;28;20040;-75
2022/07/02 11:46:43;;;;;;;1.17;0.50;;;27.80;52.80;;;;;;5035715;28;20140;-74
2022/07/02 11:49:23;;;;;;;1.80;0.60;;;28.00;53.60;;;;;;5039197;28;20036;-74
2022/07/02 11:51:51;;;;;;;1.17;0.45;;;28.20;53.90;;;;;;5040200;28;20021;-74
2022/07/02 11:54:18;;;;;;;0.68;0.52;;;28.40;52.50;;;;;;5045174;28;20024;-75
2022/07/02 11:56:45;;;;;;;2.53;0.82;;;28.30;52.50;;;;;;5040550;28;20428;-74
2022/07/02 11:59:12;;;;;;;0.90;0.80;;;28.00;53.00;;;;;;5032754;28;20033;-74
2022/07/02 12:01:41;;;;;;;1.73;1.27;;;27.80;54.00;;;;;;5041142;28;20116;-74
2022/07/02 12:04:09;;;;;;;2.13;1.58;;;28.00;55.00;;;;;;5042659;28;20033;-74
2022/07/02 12:06:40;;;;;;;2.05;1.50;;;28.00;52.80;;;;;;5026159;28;20391;-74
2022/07/02 12:09:08;;;;;;;3.00;1.38;;;27.80;53.10;;;;;;5031666;28;20060;-73
2022/07/02 12:11:39;;;;;;;1.25;0.82;;;27.60;53.50;;;;;;5029500;28;20489;-73
2022/07/02 12:14:06;;;;;;;1.58;0.90;;;27.40;52.90;;;;;;5034308;28;20025;-73
2022/07/02 12:16:33;;;;;;;3.50;1.00;;;27.20;54.00;;;;;;5031635;28;20460;-74
2022/07/02 12:19:08;;;;;;;2.13;0.90;;;27.20;54.80;;;;;;5038390;28;20032;-73
2022/07/02 12:21:46;;;;;;;1.15;0.90;;;27.10;54.70;;;;;;5042171;28;20052;-73
2022/07/02 12:24:20;;;;;;;3.55;0.90;;;27.00;54.60;;;;;;5029531;28;20037;-73
2022/07/02 12:26:47;;;;;;;2.88;0.70;;;26.90;55.40;;;;;;5049520;28;20024;-73
2022/07/02 12:32:09;;;;;;;2.85;0.68;;;27.50;54.70;;;;;;5038118;28;20141;-73
2022/07/02 12:34:49;;;;;;;1.20;0.65;;;27.90;53.20;;;;;;5040738;28;20513;-73
2022/07/02 12:37:25;;;;;;;1.17;0.63;;;28.30;52.30;;;;;;5042038;28;20024;-74
2022/07/02 12:40:01;;;;;;;1.90;0.60;;;28.50;51.40;;;;;;5031917;28;20392;-75
2022/07/02 12:42:28;;;;;;;0.73;0.50;;;28.70;51.40;;;;;;5034503;28;20549;-74
2022/07/02 12:44:56;;;;;;;1.77;0.60;;;28.90;51.30;;;;;;5031569;28;20158;-74
2022/07/02 12:47:23;;;;;;;1.42;0.60;;;29.00;51.60;;;;;;5035145;28;20017;-75
2022/07/02 12:49:57;;;;;;;23.75;2.28;;;29.20;52.30;;;;;;5035837;28;20098;-75
2022/07/02 12:52:24;;;;;;;8.77;1.10;;;29.30;50.90;;;;;;5035833;28;20117;-74